Time;durP1;ratioP1;P1;durP2;ratioP2;P2;SDS_P1;SDS_P2;PMS_P1;PMS_P2;Temp;Humidity;BMP_temperature;BMP_pressure;BME280_temperature;BME280_humidity;BME280_pressure;Samples;Min_cycle;Max_cycle;Signal;HPM_P1;HPM_P2
2023/06/09 00:00:47;;;;;;;1999.90;999.90;;;13.10;99.90;;;;;;5054055;28;20369;-65
2023/06/09 00:03:16;;;;;;;1999.90;999.90;;;13.10;99.90;;;;;;5053593;28;20122;-66
2023/06/09 00:05:42;;;;;;;1999.90;999.90;;;13.10;99.90;;;;;;5052681;28;20409;-66
2023/06/09 00:08:08;;;;;;;1999.90;999.90;;;13.00;99.90;;;;;;5053941;28;20078;-66
2023/06/09 00:10:34;;;;;;;1999.90;999.90;;;13.00;99.90;;;;;;5052974;28;20052;-66
2023/06/09 00:13:00;;;;;;;1999.90;999.90;;;13.00;99.90;;;;;;5054367;28;20047;-66
2023/06/09 00:15:26;;;;;;;1999.90;999.90;;;13.00;99.90;;;;;;5054308;28;20068;-66
2023/06/09 00:17:53;;;;;;;1999.90;999.90;;;13.00;99.90;;;;;;5053678;28;20045;-66
2023/06/09 00:20:20;;;;;;;1999.90;999.90;;;13.00;99.90;;;;;;5053376;28;20041;-66
2023/06/09 00:22:48;;;;;;;1999.90;999.90;;;13.00;99.90;;;;;;5052505;28;20049;-66
2023/06/09 00:25:15;;;;;;;1999.90;999.90;;;13.00;99.90;;;;;;5053588;28;20045;-66
2023/06/09 00:27:45;;;;;;;1999.90;999.90;;;12.90;99.90;;;;;;5053249;28;20493;-66
2023/06/09 00:30:14;;;;;;;1999.90;999.90;;;13.00;99.90;;;;;;5053534;28;20080;-66
2023/06/09 00:32:42;;;;;;;1999.90;999.90;;;13.00;99.90;;;;;;5053662;28;20060;-66
2023/06/09 00:35:09;;;;;;;1999.90;999.90;;;13.00;99.90;;;;;;5053419;28;20041;-66
2023/06/09 00:37:35;;;;;;;1999.90;999.90;;;12.90;99.90;;;;;;5054029;28;20045;-66
2023/06/09 00:40:01;;;;;;;1999.90;999.90;;;13.00;99.90;;;;;;5053414;28;20051;-66
2023/06/09 00:42:26;;;;;;;1999.90;999.90;;;12.90;99.90;;;;;;5051928;28;20052;-66
2023/06/09 00:44:52;;;;;;;1999.90;999.90;;;12.90;99.90;;;;;;5053449;28;20041;-67
2023/06/09 00:47:18;;;;;;;1999.90;999.90;;;13.00;99.90;;;;;;5053417;28;20049;-66
2023/06/09 00:49:44;;;;;;;1999.90;999.90;;;12.90;99.90;;;;;;5053353;28;20045;-66
2023/06/09 00:52:10;;;;;;;1999.90;999.90;;;12.90;99.90;;;;;;5053590;28;20051;-66
2023/06/09 00:54:37;;;;;;;1999.90;999.90;;;12.90;99.90;;;;;;5052894;28;20492;-66
2023/06/09 00:57:05;;;;;;;1999.90;999.90;;;12.90;99.90;;;;;;5053497;28;20124;-66
2023/06/09 00:59:35;;;;;;;1999.90;999.90;;;12.90;99.90;;;;;;5053218;28;20067;-66
2023/06/09 01:02:05;;;;;;;1999.90;999.90;;;12.90;99.90;;;;;;5052354;28;20123;-66
2023/06/09 01:04:32;;;;;;;1999.90;999.90;;;12.90;99.90;;;;;;5052141;28;20056;-66
2023/06/09 01:07:20;;;;;;;1999.90;999.90;;;12.80;99.90;;;;;;5053170;28;20123;-66
2023/06/09 01:10:02;;;;;;;1999.90;999.90;;;12.80;99.90;;;;;;5053246;28;20056;-66
2023/06/09 01:12:43;;;;;;;1999.90;999.90;;;12.80;99.90;;;;;;5053172;28;20064;-66
2023/06/09 01:15:17;;;;;;;1999.90;999.90;;;12.80;99.90;;;;;;5053612;28;20389;-66
2023/06/09 01:17:48;;;;;;;1999.90;999.90;;;12.80;99.90;;;;;;5053967;28;20128;-66
2023/06/09 01:20:26;;;;;;;1999.90;999.90;;;12.80;99.90;;;;;;5053649;28;20051;-66
2023/06/09 01:23:08;;;;;;;1999.90;999.90;;;12.70;99.90;;;;;;5057255;28;20055;-66
2023/06/09 01:25:39;;;;;;;1999.90;999.90;;;12.80;99.90;;;;;;5057452;28;20057;-66
2023/06/09 01:28:06;;;;;;;1999.90;999.90;;;12.80;99.90;;;;;;5056615;28;20485;-66
2023/06/09 01:30:33;;;;;;;1999.90;999.90;;;12.80;99.90;;;;;;5055592;28;20051;-66
2023/06/09 01:33:03;;;;;;;1999.90;999.90;;;12.70;99.90;;;;;;5056804;28;20049;-66
2023/06/09 01:35:29;;;;;;;1999.90;999.90;;;12.70;99.90;;;;;;5055174;28;20060;-66
2023/06/09 01:37:56;;;;;;;1999.90;999.90;;;12.70;99.90;;;;;;5055790;28;20154;-66
2023/06/09 01:40:21;;;;;;;1999.90;999.90;;;12.70;99.90;;;;;;5056611;28;20175;-66
2023/06/09 01:42:47;;;;;;;1999.90;999.90;;;12.70;99.90;;;;;;5056599;28;20132;-66
2023/06/09 01:45:13;;;;;;;1999.90;999.90;;;12.70;99.90;;;;;;5056539;28;20049;-66
2023/06/09 01:47:39;;;;;;;1999.90;999.90;;;12.70;99.90;;;;;;5055240;28;20060;-66
2023/06/09 01:50:11;;;;;;;1999.90;999.90;;;12.70;99.90;;;;;;5057065;28;20424;-66
2023/06/09 01:52:39;;;;;;;1999.90;999.90;;;12.60;99.90;;;;;;5056147;28;20045;-67
2023/06/09 01:55:14;;;;;;;1999.90;999.90;;;12.70;99.90;;;;;;5056833;28;20124;-66
2023/06/09 01:58:11;;;;;;;1999.90;999.90;;;12.70;99.90;;;;;;5056145;28;20420;-66
2023/06/09 02:00:39;;;;;;;1999.90;999.90;;;12.70;99.90;;;;;;5055857;28;20134;-66
2023/06/09 02:03:07;;;;;;;1999.90;999.90;;;12.60;99.90;;;;;;5056138;28;20128;-66
2023/06/09 02:05:35;;;;;;;1999.90;999.90;;;12.70;99.90;;;;;;5056058;28;20053;-66
2023/06/09 02:08:01;;;;;;;1999.90;999.90;;;12.70;99.90;;;;;;5056086;28;20412;-66
2023/06/09 02:10:29;;;;;;;1999.90;999.90;;;12.70;99.90;;;;;;5056000;28;20099;-66
2023/06/09 02:12:55;;;;;;;1999.90;999.90;;;12.60;99.90;;;;;;5055598;28;20099;-66
2023/06/09 02:15:21;;;;;;;1999.90;999.90;;;12.60;99.90;;;;;;5055892;28;20080;-66
2023/06/09 02:17:46;;;;;;;1999.90;999.90;;;12.60;99.90;;;;;;5055879;28;20051;-66
2023/06/09 02:20:13;;;;;;;1999.90;999.90;;;12.60;99.90;;;;;;5054715;28;20119;-66
2023/06/09 02:22:39;;;;;;;1999.90;999.90;;;12.60;99.90;;;;;;5055824;28;20102;-66
2023/06/09 02:25:05;;;;;;;1999.90;999.90;;;12.60;99.90;;;;;;5055739;28;20041;-66
2023/06/09 02:27:31;;;;;;;1999.90;999.90;;;12.60;99.90;;;;;;5055795;28;20049;-66
2023/06/09 02:29:57;;;;;;;1999.90;999.90;;;12.60;99.90;;;;;;5054514;28;20071;-66
2023/06/09 02:32:23;;;;;;;1999.90;999.90;;;12.60;99.90;;;;;;5055233;28;20473;-66
2023/06/09 02:34:49;;;;;;;1999.90;999.90;;;12.60;99.90;;;;;;5054916;28;20045;-66
2023/06/09 02:37:15;;;;;;;1999.90;999.90;;;12.60;99.90;;;;;;5054417;28;20511;-66
2023/06/09 02:39:41;;;;;;;1999.90;999.90;;;12.60;99.90;;;;;;5056330;28;20037;-66
2023/06/09 02:42:07;;;;;;;1999.90;999.90;;;12.60;99.90;;;;;;5055456;28;20469;-67
2023/06/09 02:44:36;;;;;;;1999.90;999.90;;;12.60;99.90;;;;;;5055996;28;20037;-66
2023/06/09 02:47:05;;;;;;;1999.90;999.90;;;12.60;99.90;;;;;;5054807;28;20048;-66
2023/06/09 02:49:31;;;;;;;1999.90;999.90;;;12.60;99.90;;;;;;5055322;28;20044;-66
2023/06/09 02:51:57;;;;;;;1999.90;999.90;;;12.60;99.90;;;;;;5055259;28;20057;-67
2023/06/09 02:54:22;;;;;;;1999.90;999.90;;;12.60;99.90;;;;;;5055999;28;20045;-66
2023/06/09 02:56:48;;;;;;;1999.90;999.90;;;12.60;99.90;;;;;;5055766;28;20144;-66
2023/06/09 02:59:14;;;;;;;1999.90;999.90;;;12.60;99.90;;;;;;5053963;28;20127;-66
2023/06/09 03:01:42;;;;;;;1999.90;999.90;;;12.60;99.90;;;;;;5054893;28;20052;-66
2023/06/09 03:04:09;;;;;;;1999.90;999.90;;;12.60;99.90;;;;;;5054504;28;20037;-66
2023/06/09 03:06:36;;;;;;;1999.90;999.90;;;12.60;99.90;;;;;;5054928;28;20131;-66
2023/06/09 03:09:03;;;;;;;1999.90;999.90;;;12.60;99.90;;;;;;5055459;28;20048;-66
2023/06/09 03:11:29;;;;;;;1999.90;999.90;;;12.60;99.90;;;;;;5053707;28;20124;-66
2023/06/09 03:13:55;;;;;;;1999.90;999.90;;;12.60;99.90;;;;;;5054777;28;20052;-66
2023/06/09 03:16:21;;;;;;;1999.90;999.90;;;12.70;99.90;;;;;;5053662;28;20037;-66
2023/06/09 03:18:47;;;;;;;1999.90;999.90;;;12.60;99.90;;;;;;5054852;28;20053;-66
2023/06/09 03:21:13;;;;;;;1999.90;999.90;;;12.60;99.90;;;;;;5054712;28;20090;-66
2023/06/09 03:23:40;;;;;;;1999.90;999.90;;;12.60;99.90;;;;;;5055018;28;20468;-66
2023/06/09 03:26:07;;;;;;;1999.90;999.90;;;12.60;99.90;;;;;;5054786;28;20174;-66
2023/06/09 03:28:33;;;;;;;1999.90;999.90;;;12.70;99.90;;;;;;5054601;28;20059;-66
2023/06/09 03:30:58;;;;;;;1999.90;999.90;;;12.60;99.90;;;;;;5053387;28;20045;-66
2023/06/09 03:33:25;;;;;;;1999.90;999.90;;;12.70;99.90;;;;;;5054444;28;20132;-66
2023/06/09 03:35:50;;;;;;;1999.90;999.90;;;12.70;99.90;;;;;;5054396;28;20092;-66
2023/06/09 03:38:17;;;;;;;1999.90;999.90;;;12.70;99.90;;;;;;5054416;28;20166;-66
2023/06/09 03:40:42;;;;;;;1999.90;999.90;;;12.70;99.90;;;;;;5054675;28;20049;-66
2023/06/09 03:43:10;;;;;;;1999.90;999.90;;;12.70;99.90;;;;;;5053597;28;20048;-66
2023/06/09 03:45:37;;;;;;;1999.90;999.90;;;12.80;99.90;;;;;;5053127;28;20045;-66
2023/06/09 03:48:05;;;;;;;1999.90;999.90;;;12.80;99.90;;;;;;5054233;28;20052;-66
2023/06/09 03:50:31;;;;;;;1999.90;999.90;;;12.80;99.90;;;;;;5054734;28;20136;-66
2023/06/09 03:52:56;;;;;;;1999.90;999.90;;;12.80;99.90;;;;;;5054207;28;20048;-66
2023/06/09 03:55:24;;;;;;;1999.90;999.90;;;12.80;99.90;;;;;;5054095;28;20083;-66
2023/06/09 03:57:50;;;;;;;1999.90;999.90;;;12.90;99.90;;;;;;5054952;28;20079;-66
2023/06/09 04:00:17;;;;;;;1999.90;999.90;;;12.90;99.90;;;;;;5054594;28;20045;-66
2023/06/09 04:02:43;;;;;;;1999.90;999.90;;;12.90;99.90;;;;;;5054008;28;20055;-66
2023/06/09 04:05:09;;;;;;;1999.90;999.90;;;12.90;99.90;;;;;;5054430;28;20041;-66
2023/06/09 04:07:35;;;;;;;1999.90;999.90;;;12.90;99.90;;;;;;5054232;28;20124;-66
2023/06/09 04:10:02;;;;;;;1999.90;999.90;;;13.00;99.90;;;;;;5053914;28;20041;-66
2023/06/09 04:12:28;;;;;;;1999.90;999.90;;;13.00;99.90;;;;;;5052831;28;20048;-65
2023/06/09 04:14:55;;;;;;;1999.90;999.90;;;13.00;99.90;;;;;;5053799;28;20053;-66
2023/06/09 04:17:22;;;;;;;1999.90;999.90;;;13.00;99.90;;;;;;5052629;28;20451;-66
2023/06/09 04:19:48;;;;;;;1999.90;999.90;;;13.00;99.90;;;;;;5054259;28;20400;-66
2023/06/09 04:22:14;;;;;;;1999.90;999.90;;;13.10;99.90;;;;;;5053658;28;20053;-66
2023/06/09 04:24:40;;;;;;;1999.90;999.90;;;13.10;99.90;;;;;;5053862;28;20049;-66
2023/06/09 04:27:07;;;;;;;1999.90;999.90;;;13.10;99.90;;;;;;5053282;28;20045;-66
2023/06/09 04:29:33;;;;;;;1999.90;999.90;;;13.10;99.90;;;;;;5053671;28;20045;-66
2023/06/09 04:32:00;;;;;;;1999.90;999.90;;;13.20;99.90;;;;;;5053848;28;20056;-66
2023/06/09 04:34:29;;;;;;;1999.90;999.90;;;13.20;99.90;;;;;;5053477;28;20044;-66
2023/06/09 04:36:59;;;;;;;1999.90;999.90;;;13.20;99.90;;;;;;5052951;28;20148;-66
2023/06/09 04:39:25;;;;;;;1999.90;999.90;;;13.20;99.90;;;;;;5053496;28;20084;-66
2023/06/09 04:41:54;;;;;;;1999.90;999.90;;;13.30;99.90;;;;;;5053459;28;20045;-66
2023/06/09 04:44:21;;;;;;;1999.90;999.90;;;13.30;99.90;;;;;;5053440;28;20095;-66
2023/06/09 04:46:49;;;;;;;1999.90;999.90;;;13.30;99.90;;;;;;5053998;28;20108;-66
2023/06/09 04:49:15;;;;;;;1999.90;999.90;;;13.40;99.90;;;;;;5053346;28;20091;-66
2023/06/09 04:51:48;;;;;;;1999.90;999.90;;;13.40;99.90;;;;;;5052183;28;20084;-66
2023/06/09 04:54:14;;;;;;;;;;;13.40;99.90;;;;;;5053681;28;20132;-66
2023/06/09 04:56:44;;;;;;;1999.90;999.90;;;13.50;99.90;;;;;;5055079;28;20283;-66
2023/06/09 04:59:13;;;;;;;1999.90;999.90;;;13.50;99.90;;;;;;5057385;28;20103;-66
2023/06/09 05:01:40;;;;;;;1999.90;999.90;;;13.50;99.90;;;;;;5057319;28;20044;-66
2023/06/09 05:04:09;;;;;;;1999.90;999.90;;;13.60;99.90;;;;;;5057396;28;20053;-65
2023/06/09 05:06:36;;;;;;;1999.90;999.90;;;13.50;99.90;;;;;;5057330;28;20091;-66
2023/06/09 05:09:04;;;;;;;1999.90;999.90;;;13.60;99.90;;;;;;5057258;28;20049;-65
2023/06/09 05:11:29;;;;;;;1999.90;999.90;;;13.60;99.90;;;;;;5057424;28;20044;-65
2023/06/09 05:13:55;;;;;;;1999.90;999.90;;;13.60;99.90;;;;;;5055897;28;20041;-65
2023/06/09 05:16:21;;;;;;;1999.90;999.90;;;13.70;99.90;;;;;;5057089;28;20091;-65
2023/06/09 05:18:48;;;;;;;1999.90;999.90;;;13.70;99.90;;;;;;5057162;28;20045;-66
2023/06/09 05:21:13;;;;;;;1999.90;999.90;;;13.70;99.90;;;;;;5057109;28;20103;-66
2023/06/09 05:23:39;;;;;;;1999.90;999.90;;;13.70;99.90;;;;;;5057027;28;20488;-65
2023/06/09 05:26:04;;;;;;;1999.90;999.90;;;13.70;99.90;;;;;;5056613;28;20128;-66
2023/06/09 05:28:30;;;;;;;1999.90;999.90;;;13.70;99.90;;;;;;5055999;28;20053;-66
2023/06/09 05:30:56;;;;;;;1999.90;999.90;;;13.70;99.90;;;;;;5056826;28;20047;-65
2023/06/09 05:33:22;;;;;;;1999.90;999.90;;;13.80;99.90;;;;;;5057263;28;20060;-65
2023/06/09 05:35:48;;;;;;;1999.90;999.90;;;13.80;99.90;;;;;;5055024;28;20053;-65
2023/06/09 05:38:13;;;;;;;1999.90;999.90;;;13.80;99.90;;;;;;5056010;28;20061;-66
2023/06/09 05:40:39;;;;;;;1999.90;999.90;;;13.80;99.90;;;;;;5055454;28;20091;-66
2023/06/09 05:43:05;;;;;;;1999.90;999.90;;;13.80;99.90;;;;;;5057177;28;20377;-66
2023/06/09 05:45:31;;;;;;;1999.90;999.90;;;13.90;99.90;;;;;;5056702;28;20076;-66
2023/06/09 05:47:57;;;;;;;1999.90;999.90;;;13.90;99.90;;;;;;5056642;28;20084;-66
2023/06/09 05:50:22;;;;;;;1999.90;999.90;;;14.00;99.90;;;;;;5055639;28;20051;-66
2023/06/09 05:52:48;;;;;;;1999.90;999.90;;;14.00;99.90;;;;;;5056332;28;20376;-66
2023/06/09 05:55:16;;;;;;;1999.90;999.90;;;14.00;99.90;;;;;;5057170;28;20044;-65
2023/06/09 05:57:44;;;;;;;1999.90;999.90;;;14.10;99.90;;;;;;5056340;28;20049;-66
2023/06/09 06:00:10;;;;;;;1999.90;999.90;;;14.10;99.90;;;;;;5056338;28;20155;-66
2023/06/09 06:02:38;;;;;;;1999.90;999.90;;;14.20;99.90;;;;;;5056544;28;20052;-66
2023/06/09 06:05:06;;;;;;;1999.90;999.90;;;14.30;99.90;;;;;;5056164;28;20052;-66
2023/06/09 06:07:31;;;;;;;1999.90;999.90;;;14.30;99.90;;;;;;5055945;28;20063;-66
2023/06/09 06:09:57;;;;;;;1999.90;999.90;;;14.40;99.90;;;;;;5056249;28;20119;-66
2023/06/09 06:12:23;;;;;;;1999.90;999.90;;;14.40;99.90;;;;;;5055409;28;20048;-66
2023/06/09 06:14:48;;;;;;;1999.90;999.90;;;14.50;99.90;;;;;;5056471;28;20094;-66
2023/06/09 06:17:14;;;;;;;1999.90;999.90;;;14.50;99.90;;;;;;5038032;28;20065;-66
2023/06/09 06:19:40;;;;;;;1999.90;999.90;;;14.60;99.90;;;;;;5056786;28;20048;-66
2023/06/09 06:22:05;;;;;;;1999.90;999.90;;;14.60;99.90;;;;;;5055898;28;20401;-66
2023/06/09 06:24:31;;;;;;;1999.90;999.90;;;14.70;99.90;;;;;;5056815;28;20052;-66
2023/06/09 06:26:57;;;;;;;1999.90;999.90;;;14.70;99.90;;;;;;5055882;28;20044;-66
2023/06/09 06:29:22;;;;;;;1999.90;999.90;;;14.80;99.90;;;;;;5056541;28;20131;-66
2023/06/09 06:31:48;;;;;;;1999.90;999.90;;;14.90;99.90;;;;;;5054192;28;20048;-66
2023/06/09 06:34:14;;;;;;;1999.90;999.90;;;14.90;99.90;;;;;;5055558;28;20105;-66
2023/06/09 06:36:40;;;;;;;1999.90;999.90;;;15.00;99.90;;;;;;5053863;28;20068;-66
2023/06/09 06:39:06;;;;;;;1999.90;999.90;;;15.10;99.90;;;;;;5055782;28;20044;-66
2023/06/09 06:41:32;;;;;;;1999.90;999.90;;;15.10;99.90;;;;;;5054521;28;20041;-66
2023/06/09 06:43:57;;;;;;;1999.90;999.90;;;15.20;99.90;;;;;;5055455;28;20044;-66
2023/06/09 06:46:23;;;;;;;1999.90;999.90;;;15.30;99.90;;;;;;5055722;28;20508;-66
2023/06/09 06:48:49;;;;;;;1999.90;999.90;;;15.30;99.90;;;;;;5055254;28;20095;-66
2023/06/09 06:51:14;;;;;;;1999.90;999.90;;;15.30;99.90;;;;;;5055525;28;20052;-66
2023/06/09 06:53:40;;;;;;;1999.90;999.90;;;15.40;99.90;;;;;;5055120;28;20554;-66
2023/06/09 06:56:06;;;;;;;1999.90;999.90;;;15.50;99.90;;;;;;5055233;28;20052;-66
2023/06/09 06:58:31;;;;;;;1999.90;999.90;;;15.50;99.90;;;;;;5055433;28;20044;-66
2023/06/09 07:00:57;;;;;;;1999.90;999.90;;;15.60;99.90;;;;;;5055114;28;20041;-66
2023/06/09 07:03:26;;;;;;;1999.90;999.90;;;15.70;99.90;;;;;;5055035;28;20051;-66
2023/06/09 07:05:53;;;;;;;1999.90;999.90;;;15.70;99.90;;;;;;5055080;28;20098;-66
2023/06/09 07:08:19;;;;;;;1999.90;999.90;;;15.80;99.90;;;;;;5054973;28;20045;-66
2023/06/09 07:10:45;;;;;;;1999.90;999.90;;;15.90;99.90;;;;;;5053758;28;20048;-66
2023/06/09 07:13:11;;;;;;;1999.90;999.90;;;16.00;99.90;;;;;;5054876;28;20049;-68
2023/06/09 07:15:38;;;;;;;1999.90;999.90;;;16.10;99.90;;;;;;5055314;28;20083;-67
2023/06/09 07:18:06;;;;;;;1999.90;999.90;;;16.10;99.90;;;;;;5054797;28;20072;-66
2023/06/09 07:20:32;;;;;;;1999.90;999.90;;;16.20;99.90;;;;;;5054749;28;20049;-67
2023/06/09 07:22:58;;;;;;;1999.90;999.90;;;16.30;99.90;;;;;;5053576;28;20397;-67
2023/06/09 07:25:24;;;;;;;1999.90;999.90;;;16.40;99.90;;;;;;5054792;28;20128;-67
2023/06/09 07:27:50;;;;;;;1999.90;999.90;;;16.40;99.90;;;;;;5055307;28;20492;-67
2023/06/09 07:30:16;;;;;;;1999.90;999.90;;;16.50;99.90;;;;;;5054747;28;20131;-66
2023/06/09 07:32:41;;;;;;;1999.90;999.90;;;16.60;99.90;;;;;;5037826;28;20045;-64
2023/06/09 07:35:12;;;;;;;1999.90;999.90;;;16.70;99.90;;;;;;5054162;28;20110;-67
2023/06/09 07:37:40;;;;;;;1999.90;999.90;;;16.70;99.90;;;;;;5054612;28;20044;-67
2023/06/09 07:40:07;;;;;;;1999.90;999.90;;;16.80;99.90;;;;;;5053520;28;20469;-67
2023/06/09 07:42:33;;;;;;;1999.90;999.90;;;16.90;99.90;;;;;;5054491;28;20045;-66
2023/06/09 07:44:58;;;;;;;1999.90;999.90;;;17.00;99.90;;;;;;5054434;28;20102;-66
2023/06/09 07:47:25;;;;;;;1999.90;999.90;;;17.00;99.90;;;;;;5054414;28;20044;-66
2023/06/09 07:49:50;;;;;;;1999.90;999.90;;;17.10;99.90;;;;;;5053089;28;20045;-66
2023/06/09 07:52:16;;;;;;;1999.90;999.90;;;17.20;99.90;;;;;;5054306;28;20045;-66
2023/06/09 07:54:42;;;;;;;1999.90;999.90;;;17.20;99.90;;;;;;5054247;28;20132;-66
2023/06/09 07:57:07;;;;;;;1999.90;999.90;;;17.30;99.90;;;;;;5054733;28;20465;-66
2023/06/09 07:59:33;;;;;;;1999.90;999.90;;;17.40;99.90;;;;;;5054493;28;20048;-66
2023/06/09 08:01:59;;;;;;;1999.90;999.90;;;17.40;99.90;;;;;;5054431;28;20150;-66
2023/06/09 08:04:26;;;;;;;1999.90;999.90;;;17.50;99.90;;;;;;5054049;28;20037;-66
2023/06/09 08:06:51;;;;;;;1999.90;999.90;;;17.50;99.90;;;;;;5054492;28;20053;-66
2023/06/09 08:09:17;;;;;;;1999.90;999.90;;;17.60;99.90;;;;;;5054015;28;20037;-66
2023/06/09 08:11:43;;;;;;;1999.90;999.90;;;17.70;99.90;;;;;;5054537;28;20045;-66
2023/06/09 08:14:09;;;;;;;1999.90;999.90;;;17.80;99.90;;;;;;5053237;28;20392;-66
2023/06/09 08:16:35;;;;;;;1999.90;999.90;;;17.90;99.90;;;;;;5052602;28;20053;-67
2023/06/09 08:19:01;;;;;;;1999.90;999.90;;;17.90;99.90;;;;;;5053836;28;20051;-66
2023/06/09 08:21:26;;;;;;;1999.90;999.90;;;18.00;99.90;;;;;;5054054;28;20496;-66
2023/06/09 08:23:52;;;;;;;1999.90;999.90;;;18.10;99.90;;;;;;5053407;28;20041;-66
2023/06/09 08:26:18;;;;;;;1999.90;999.90;;;18.20;99.90;;;;;;5053761;28;20049;-66
2023/06/09 08:28:44;;;;;;;1999.90;999.90;;;18.30;99.90;;;;;;5053710;28;20049;-66
2023/06/09 08:31:09;;;;;;;1999.90;999.90;;;18.30;99.90;;;;;;5052727;28;20094;-66
2023/06/09 08:33:35;;;;;;;1999.90;999.90;;;18.40;99.90;;;;;;5052417;28;20052;-66
2023/06/09 08:36:05;;;;;;;1999.90;999.90;;;18.50;99.90;;;;;;5053638;28;20056;-66
2023/06/09 08:38:32;;;;;;;1999.90;999.90;;;18.60;99.90;;;;;;5053970;28;20143;-66
2023/06/09 08:41:06;;;;;;;1999.90;999.90;;;18.70;99.90;;;;;;5053630;28;20045;-66
2023/06/09 08:43:32;;;;;;;1999.90;999.90;;;18.70;99.90;;;;;;5054144;28;20107;-66
2023/06/09 08:46:01;;;;;;;1999.90;999.90;;;18.80;99.90;;;;;;5053540;28;20045;-66
2023/06/09 08:48:29;;;;;;;1999.90;999.90;;;18.90;99.90;;;;;;5052789;28;20049;-66
2023/06/09 08:50:55;;;;;;;1999.90;999.90;;;19.00;99.90;;;;;;5054271;28;20049;-68
2023/06/09 08:53:21;;;;;;;1999.90;999.90;;;19.10;99.90;;;;;;5052713;28;20049;-67
2023/06/09 08:55:48;;;;;;;1999.90;999.90;;;19.10;99.90;;;;;;5052719;28;20198;-67
2023/06/09 08:58:15;;;;;;;1999.90;999.90;;;19.20;99.90;;;;;;5053436;28;20048;-67
2023/06/09 09:00:41;;;;;;;1999.90;999.90;;;19.30;99.90;;;;;;5053409;28;20036;-65
2023/06/09 09:03:07;;;;;;;1999.90;999.90;;;19.30;99.90;;;;;;5052415;28;20049;-64
2023/06/09 09:05:33;;;;;;;1999.90;999.90;;;19.40;99.90;;;;;;5052602;28;20041;-64
2023/06/09 09:07:59;;;;;;;1999.90;999.90;;;19.50;99.90;;;;;;5053896;28;20492;-65
2023/06/09 09:10:25;;;;;;;1999.90;999.90;;;19.60;99.90;;;;;;5053257;28;20128;-64
2023/06/09 09:12:54;;;;;;;1999.90;999.90;;;19.70;99.90;;;;;;5052175;28;20127;-65
2023/06/09 09:15:23;;;;;;;1999.90;999.90;;;19.70;99.90;;;;;;5053170;28;20080;-64
2023/06/09 09:17:49;;;;;;;1999.90;999.90;;;19.90;99.90;;;;;;5035891;28;20057;-65
2023/06/09 09:20:15;;;;;;;1999.90;999.90;;;19.90;99.90;;;;;;5053192;28;20546;-64
2023/06/09 09:22:45;;;;;;;1999.90;999.90;;;20.00;99.90;;;;;;5053155;28;20480;-64
2023/06/09 09:25:21;;;;;;;1999.90;999.90;;;20.10;99.90;;;;;;5053146;28;20107;-64
2023/06/09 09:28:09;;;;;;;1999.90;999.90;;;20.20;99.90;;;;;;5052823;28;20056;-65
2023/06/09 09:30:48;;;;;;;1999.90;999.90;;;20.30;99.90;;;;;;5053180;28;20049;-64
2023/06/09 09:33:22;;;;;;;1999.90;999.90;;;20.30;99.90;;;;;;5053735;28;20063;-64
2023/06/09 09:35:59;;;;;;;1999.90;999.90;;;20.40;99.90;;;;;;5052787;28;20381;-65
2023/06/09 09:38:27;;;;;;;1999.90;999.90;;;20.50;99.90;;;;;;5051917;28;20088;-65
2023/06/09 09:40:55;;;;;;;1999.90;999.90;;;20.50;99.90;;;;;;5052634;28;20056;-65
2023/06/09 09:43:25;;;;;;;1999.90;999.90;;;20.60;99.90;;;;;;5055420;28;20049;-64
2023/06/09 09:45:52;;;;;;;1999.90;999.90;;;20.70;99.90;;;;;;5057154;28;20044;-65
2023/06/09 09:48:21;;;;;;;1999.90;999.90;;;20.80;99.90;;;;;;5055150;28;20404;-65
2023/06/09 09:50:48;;;;;;;1999.90;999.90;;;20.80;99.90;;;;;;5056824;28;20044;-65
2023/06/09 09:53:15;;;;;;;1999.90;999.90;;;20.90;99.90;;;;;;5057248;28;20052;-65
2023/06/09 09:55:45;;;;;;;1999.90;999.90;;;21.00;99.90;;;;;;5056370;28;20099;-65
2023/06/09 09:58:12;;;;;;;1999.90;999.90;;;21.10;99.90;;;;;;5056568;28;20389;-62
2023/06/09 10:00:43;;;;;;;1999.90;999.90;;;21.10;99.90;;;;;;5056280;28;20094;-62
2023/06/09 10:03:19;;;;;;;1999.90;999.90;;;21.20;99.90;;;;;;5056059;28;20098;-62
2023/06/09 10:05:46;;;;;;;1999.90;999.90;;;21.30;99.90;;;;;;5054853;28;20083;-62
2023/06/09 10:08:19;;;;;;;1999.90;999.90;;;21.30;99.90;;;;;;5056015;28;20056;-62
2023/06/09 10:10:46;;;;;;;1999.90;999.90;;;21.40;99.90;;;;;;5057081;28;20350;-62
2023/06/09 10:13:12;;;;;;;1999.90;999.90;;;21.40;99.90;;;;;;5055440;28;20041;-62
2023/06/09 10:15:42;;;;;;;1999.90;999.90;;;21.50;99.90;;;;;;5056162;28;20096;-62
2023/06/09 10:18:10;;;;;;;1999.90;999.90;;;21.60;99.90;;;;;;5054701;28;20041;-62
2023/06/09 10:20:36;;;;;;;1999.90;999.90;;;21.70;99.90;;;;;;5055866;28;20044;-62
2023/06/09 10:23:04;;;;;;;1999.90;999.90;;;21.80;99.90;;;;;;5055821;28;20472;-61
2023/06/09 10:25:30;;;;;;;1999.90;999.90;;;21.80;99.90;;;;;;5054575;28;20090;-62
2023/06/09 10:27:56;;;;;;;1999.90;999.90;;;21.90;99.90;;;;;;5055901;28;20045;-62
2023/06/09 10:30:22;;;;;;;1999.90;999.90;;;21.90;99.90;;;;;;5055714;28;20048;-62
2023/06/09 10:32:54;;;;;;;1999.90;999.90;;;22.00;99.90;;;;;;5055165;28;20103;-62
2023/06/09 10:35:28;;;;;;;1999.90;999.90;;;22.10;99.90;;;;;;5055718;28;20047;-65
2023/06/09 10:37:56;;;;;;;1999.90;999.90;;;22.10;99.90;;;;;;5056331;28;20631;-63
2023/06/09 10:40:22;;;;;;;1999.90;999.90;;;22.20;99.90;;;;;;5055659;28;20055;-65
2023/06/09 10:43:11;;;;;;;1999.90;999.90;;;22.20;99.90;;;;;;5055655;28;20132;-64
2023/06/09 10:45:55;;;;;;;1999.90;999.90;;;22.30;99.90;;;;;;5055814;28;20041;-63
2023/06/09 10:48:39;;;;;;;1999.90;999.90;;;22.40;99.90;;;;;;5055574;28;20045;-63
2023/06/09 10:51:27;;;;;;;1999.90;999.90;;;22.50;99.90;;;;;;5054576;28;20041;-63
2023/06/09 10:54:12;;;;;;;1999.90;999.90;;;22.50;99.90;;;;;;5054606;28;20037;-64
2023/06/09 10:56:43;;;;;;;1999.90;999.90;;;22.60;99.90;;;;;;5055353;28;20429;-63
2023/06/09 10:59:24;;;;;;;1999.90;999.90;;;22.70;99.90;;;;;;5055388;28;20102;-63
2023/06/09 11:02:05;;;;;;;1999.90;999.90;;;22.80;99.90;;;;;;5055217;28;20053;-63
2023/06/09 11:04:45;;;;;;;1999.90;999.90;;;22.80;99.90;;;;;;5055226;28;20090;-63
2023/06/09 11:07:27;;;;;;;1999.90;999.90;;;22.90;99.90;;;;;;5055368;28;20040;-63
2023/06/09 11:09:56;;;;;;;1999.90;999.90;;;23.00;99.90;;;;;;5055197;28;20041;-63
2023/06/09 11:12:27;;;;;;;1999.90;999.90;;;23.10;99.90;;;;;;5055578;28;20567;-63
2023/06/09 11:14:58;;;;;;;1999.90;999.90;;;23.10;99.90;;;;;;5054953;28;20088;-64
2023/06/09 11:17:28;;;;;;;1999.90;999.90;;;23.20;99.90;;;;;;5055072;28;20135;-66
2023/06/09 11:20:09;;;;;;;1999.90;999.90;;;23.40;99.90;;;;;;5055772;28;20056;-64
2023/06/09 11:22:41;;;;;;;1999.90;999.90;;;23.40;99.90;;;;;;5054822;28;20049;-63
2023/06/09 11:25:08;;;;;;;1999.90;999.90;;;23.50;99.90;;;;;;5053651;28;20075;-64
2023/06/09 11:27:34;;;;;;;1999.90;999.90;;;23.50;99.90;;;;;;5054408;28;20801;-64
2023/06/09 11:30:18;;;;;;;1999.90;999.90;;;23.60;99.90;;;;;;5053490;28;20128;-64
2023/06/09 11:32:47;;;;;;;1999.90;999.90;;;23.60;99.90;;;;;;5055234;28;20088;-64
2023/06/09 11:35:28;;;;;;;1999.90;999.90;;;23.70;99.90;;;;;;5054865;28;20051;-64
2023/06/09 11:37:59;;;;;;;1999.90;999.90;;;23.70;99.90;;;;;;5054675;28;20067;-64
2023/06/09 11:40:29;;;;;;;1999.90;999.90;;;23.70;99.90;;;;;;5054659;28;20056;-63
2023/06/09 11:42:56;;;;;;;1999.90;999.90;;;23.70;99.90;;;;;;5054830;28;20049;-64
2023/06/09 11:45:32;;;;;;;1999.90;999.90;;;23.90;99.90;;;;;;5053222;28;20052;-64
2023/06/09 11:48:00;;;;;;;1999.90;999.90;;;23.90;99.90;;;;;;5053901;28;20041;-64
2023/06/09 11:50:40;;;;;;;1999.90;999.90;;;23.90;99.90;;;;;;5054265;28;20079;-64
2023/06/09 11:53:08;;;;;;;1999.90;999.90;;;24.00;99.90;;;;;;5054837;28;20056;-64
2023/06/09 11:55:34;;;;;;;1999.90;999.90;;;24.00;99.90;;;;;;5052924;28;20049;-64
2023/06/09 11:58:01;;;;;;;1999.90;999.90;;;24.10;99.90;;;;;;5054176;28;20500;-65
2023/06/09 12:00:28;;;;;;;1999.90;999.90;;;24.10;99.90;;;;;;5054660;28;20060;-64
2023/06/09 12:02:57;;;;;;;1999.90;999.90;;;24.20;99.90;;;;;;5054081;28;20408;-64